Time;durP1;ratioP1;P1;durP2;ratioP2;P2;SDS_P1;SDS_P2;PMS_P1;PMS_P2;Temp;Humidity;BMP_temperature;BMP_pressure;BME280_temperature;BME280_humidity;BME280_pressure;Samples;Min_cycle;Max_cycle;Signal;HPM_P1;HPM_P2
2021/08/17 00:01:59;;;;;;;9.05;6.50;;;;;;;;;;143739;621;47018;-52
2021/08/17 00:04:26;;;;;;;12.27;6.90;;;;;;;;;;143741;682;46026;-53
2021/08/17 00:06:52;;;;;;;8.98;6.95;;;;;;;;;;143741;612;45019;-53
2021/08/17 00:09:19;;;;;;;8.50;6.28;;;;;;;;;;143749;589;46021;-53
2021/08/17 00:11:46;;;;;;;9.27;6.00;;;;;;;;;;143739;626;47020;-53
2021/08/17 00:14:13;;;;;;;11.23;7.18;;;;;;;;;;143740;572;47011;-53
2021/08/17 00:16:40;;;;;;;10.32;6.40;;;;;;;;;;143743;669;45021;-53
2021/08/17 00:19:07;;;;;;;11.07;6.47;;;;;;;;;;143742;606;46020;-52
2021/08/17 00:21:35;;;;;;;12.20;7.72;;;;;;;;;;143741;564;47020;-53
2021/08/17 00:24:03;;;;;;;12.10;6.90;;;;;;;;;;143740;620;47010;-53
2021/08/17 00:26:30;;;;;;;8.02;6.18;;;;;;;;;;143741;569;46012;-53
2021/08/17 00:28:57;;;;;;;9.65;6.20;;;;;;;;;;143744;638;46020;-53
2021/08/17 00:31:24;;;;;;;9.23;6.90;;;;;;;;;;143742;594;47021;-52
2021/08/17 00:33:51;;;;;;;10.55;6.50;;;;;;;;;;143740;589;47010;-53
2021/08/17 00:36:18;;;;;;;9.23;6.62;;;;;;;;;;143744;613;45021;-53
2021/08/17 00:38:45;;;;;;;11.00;6.97;;;;;;;;;;143745;572;46021;-52
2021/08/17 00:41:13;;;;;;;12.02;7.05;;;;;;;;;;143738;577;47020;-53
2021/08/17 00:43:40;;;;;;;11.82;7.05;;;;;;;;;;143742;612;45920;-53
2021/08/17 00:46:07;;;;;;;9.73;6.45;;;;;;;;;;143744;611;45021;-52
2021/08/17 00:48:36;;;;;;;11.73;7.12;;;;;;;;;;143744;601;45020;-52
2021/08/17 00:51:07;;;;;;;10.65;7.65;;;;;;;;;;143738;598;47022;-53
2021/08/17 00:53:35;;;;;;;14.00;7.40;;;;;;;;;;143741;571;46028;-53
2021/08/17 00:56:03;;;;;;;10.32;7.12;;;;;;;;;;143742;570;45020;-53
2021/08/17 00:58:31;;;;;;;12.35;7.12;;;;;;;;;;143744;582;45020;-52
2021/08/17 01:00:58;;;;;;;8.40;6.85;;;;;;;;;;143733;582;47021;-53
2021/08/17 01:03:31;;;;;;;11.38;7.60;;;;;;;;;;143741;580;46010;-53
2021/08/17 01:06:02;;;;;;;10.68;7.57;;;;;;;;;;143743;571;45020;-52
2021/08/17 01:08:29;;;;;;;10.25;7.15;;;;;;;;;;143745;596;45021;-53
2021/08/17 01:10:56;;;;;;;9.18;6.60;;;;;;;;;;143739;592;47020;-52
2021/08/17 01:13:26;;;;;;;10.13;7.65;;;;;;;;;;143740;585;47010;-53
2021/08/17 01:15:54;;;;;;;10.98;7.45;;;;;;;;;;143743;627;45021;-53
2021/08/17 01:18:22;;;;;;;11.05;7.32;;;;;;;;;;143745;564;45020;-52
2021/08/17 01:20:51;;;;;;;10.50;6.47;;;;;;;;;;143738;582;47021;-53
2021/08/17 01:23:24;;;;;;;10.00;6.95;;;;;;;;;;143739;608;46011;-53
2021/08/17 01:25:51;;;;;;;15.52;7.65;;;;;;;;;;143739;593;47020;-52
2021/08/17 01:28:19;;;;;;;12.00;7.22;;;;;;;;;;143745;598;46020;-52
2021/08/17 01:30:46;;;;;;;10.27;7.25;;;;;;;;;;143739;596;47020;-52
2021/08/17 01:33:15;;;;;;;10.57;6.78;;;;;;;;;;143739;629;47010;-53
2021/08/17 01:35:42;;;;;;;11.00;6.87;;;;;;;;;;143741;593;45020;-52
2021/08/17 01:38:09;;;;;;;9.48;7.00;;;;;;;;;;143744;631;46021;-53
2021/08/17 01:40:36;;;;;;;9.98;7.22;;;;;;;;;;143740;590;47020;-53
2021/08/17 01:43:03;;;;;;;9.38;7.25;;;;;;;;;;143740;641;47020;-53
2021/08/17 01:45:30;;;;;;;10.50;7.00;;;;;;;;;;143741;593;45021;-53
2021/08/17 01:47:57;;;;;;;9.32;7.03;;;;;;;;;;143745;710;45020;-52
2021/08/17 01:50:24;;;;;;;11.18;7.30;;;;;;;;;;143738;578;47021;-53
2021/08/17 01:52:53;;;;;;;8.02;6.78;;;;;;;;;;143741;616;46019;-53
2021/08/17 01:55:20;;;;;;;9.23;7.62;;;;;;;;;;143743;596;45020;-52
2021/08/17 01:57:47;;;;;;;9.50;7.07;;;;;;;;;;143741;587;46020;-52
2021/08/17 02:00:15;;;;;;;11.32;6.85;;;;;;;;;;143740;609;47020;-53
2021/08/17 02:02:42;;;;;;;8.23;6.70;;;;;;;;;;143740;585;46030;-53
2021/08/17 02:05:10;;;;;;;8.48;6.70;;;;;;;;;;143738;566;47020;-52
2021/08/17 02:07:37;;;;;;;9.73;7.07;;;;;;;;;;143745;609;45021;-52
2021/08/17 02:10:05;;;;;;;9.60;7.18;;;;;;;;;;143739;616;47022;-52
2021/08/17 02:12:32;;;;;;;9.60;6.95;;;;;;;;;;143740;598;46010;-52
2021/08/17 02:14:59;;;;;;;12.52;7.43;;;;;;;;;;143739;577;46021;-52
2021/08/17 02:17:26;;;;;;;9.52;7.60;;;;;;;;;;143743;575;46020;-52
2021/08/17 02:19:53;;;;;;;11.05;8.02;;;;;;;;;;143741;587;47020;-52
2021/08/17 02:22:20;;;;;;;12.85;7.82;;;;;;;;;;143741;570;46011;-52
2021/08/17 02:24:47;;;;;;;10.05;7.47;;;;;;;;;;143741;577;46020;-54
2021/08/17 02:27:14;;;;;;;10.27;7.25;;;;;;;;;;143741;632;46020;-53
2021/08/17 02:29:41;;;;;;;8.60;6.82;;;;;;;;;;143737;566;47021;-53
2021/08/17 02:32:09;;;;;;;14.98;8.13;;;;;;;;;;143741;626;47919;-53
2021/08/17 02:34:36;;;;;;;9.68;7.75;;;;;;;;;;143740;612;45913;-53
2021/08/17 02:37:03;;;;;;;10.52;7.05;;;;;;;;;;143744;592;46021;-52
2021/08/17 02:39:30;;;;;;;9.73;7.35;;;;;;;;;;143739;607;47020;-52
2021/08/17 02:41:57;;;;;;;13.40;7.78;;;;;;;;;;143741;652;46010;-53
2021/08/17 02:44:24;;;;;;;10.43;7.45;;;;;;;;;;143742;577;45021;-53
2021/08/17 02:46:52;;;;;;;9.88;6.72;;;;;;;;;;143745;589;46020;-53
2021/08/17 02:49:19;;;;;;;14.23;7.32;;;;;;;;;;143739;592;47022;-53
2021/08/17 02:51:46;;;;;;;10.93;7.53;;;;;;;;;;143739;622;47010;-53
2021/08/17 02:54:13;;;;;;;8.77;7.30;;;;;;;;;;143739;591;46020;-53
2021/08/17 02:56:40;;;;;;;13.77;7.22;;;;;;;;;;143743;589;46020;-53
2021/08/17 02:59:07;;;;;;;10.50;6.60;;;;;;;;;;143738;589;47021;-52
2021/08/17 03:01:34;;;;;;;8.32;6.50;;;;;;;;;;143737;611;47010;-53
2021/08/17 03:04:01;;;;;;;8.98;6.90;;;;;;;;;;143744;580;45020;-52
2021/08/17 03:06:28;;;;;;;11.27;7.05;;;;;;;;;;143744;578;45021;-53
2021/08/17 03:08:55;;;;;;;13.38;7.85;;;;;;;;;;143739;576;47020;-53
2021/08/17 03:11:25;;;;;;;9.13;7.00;;;;;;;;;;143739;566;46919;-53
2021/08/17 03:13:52;;;;;;;12.25;7.35;;;;;;;;;;143743;633;45021;-53
2021/08/17 03:16:19;;;;;;;9.30;7.43;;;;;;;;;;143744;621;46020;-53
2021/08/17 03:18:46;;;;;;;11.48;7.57;;;;;;;;;;143739;574;47020;-53
2021/08/17 03:21:13;;;;;;;14.45;7.30;;;;;;;;;;143740;589;46028;-53
2021/08/17 03:23:42;;;;;;;10.73;7.65;;;;;;;;;;143741;588;47010;-53
2021/08/17 03:26:10;;;;;;;10.45;6.95;;;;;;;;;;143738;593;46010;-53
2021/08/17 03:28:37;;;;;;;9.95;7.03;;;;;;;;;;143741;597;46020;-53
2021/08/17 03:31:05;;;;;;;14.77;7.35;;;;;;;;;;143739;565;47010;-52
2021/08/17 03:33:32;;;;;;;8.90;6.78;;;;;;;;;;143743;563;45020;-52
2021/08/17 03:35:59;;;;;;;12.18;7.07;;;;;;;;;;143744;662;46021;-53
2021/08/17 03:38:27;;;;;;;10.18;6.65;;;;;;;;;;143739;631;47020;-52
2021/08/17 03:40:54;;;;;;;13.93;8.27;;;;;;;;;;143741;606;46010;-53
2021/08/17 03:43:20;;;;;;;13.65;7.82;;;;;;;;;;143743;598;45021;-53
2021/08/17 03:45:48;;;;;;;14.25;7.35;;;;;;;;;;143744;618;46020;-53
2021/08/17 03:48:14;;;;;;;9.25;7.22;;;;;;;;;;143743;568;46020;-53
2021/08/17 03:50:42;;;;;;;14.60;7.68;;;;;;;;;;143740;594;47010;-52
2021/08/17 03:53:08;;;;;;;20.45;8.02;;;;;;;;;;143742;572;45020;-52
2021/08/17 03:55:36;;;;;;;12.80;7.68;;;;;;;;;;143737;565;46020;-53
2021/08/17 03:58:02;;;;;;;11.77;6.97;;;;;;;;;;143740;576;47021;-53
2021/08/17 04:00:32;;;;;;;12.75;7.30;;;;;;;;;;143739;692;47010;-52
2021/08/17 04:03:00;;;;;;;13.98;7.55;;;;;;;;;;143743;578;45020;-53
2021/08/17 04:05:27;;;;;;;16.90;8.25;;;;;;;;;;143743;581;45021;-52
2021/08/17 04:07:55;;;;;;;18.48;8.75;;;;;;;;;;143740;566;47020;-52
2021/08/17 04:10:22;;;;;;;16.52;7.72;;;;;;;;;;143740;564;46027;-53
2021/08/17 04:12:49;;;;;;;16.75;7.47;;;;;;;;;;143742;571;45023;-53
2021/08/17 04:15:16;;;;;;;10.05;7.20;;;;;;;;;;143744;647;46018;-54
2021/08/17 04:17:43;;;;;;;8.60;6.60;;;;;;;;;;143739;598;47020;-52
2021/08/17 04:20:12;;;;;;;13.35;7.18;;;;;;;;;;143738;620;47011;-53
2021/08/17 04:22:40;;;;;;;12.65;7.70;;;;;;;;;;143742;839;45021;-53
2021/08/17 04:25:08;;;;;;;12.35;7.40;;;;;;;;;;143744;585;46020;-53
2021/08/17 04:27:34;;;;;;;10.65;7.35;;;;;;;;;;143740;730;47021;-53
2021/08/17 04:30:02;;;;;;;14.70;8.07;;;;;;;;;;143741;596;46010;-52
2021/08/17 04:32:29;;;;;;;15.77;7.55;;;;;;;;;;143743;670;45020;-52
2021/08/17 04:34:56;;;;;;;16.12;7.70;;;;;;;;;;143744;700;46020;-51
2021/08/17 04:37:24;;;;;;;14.13;7.05;;;;;;;;;;143738;566;47023;-53
2021/08/17 04:39:51;;;;;;;11.38;7.03;;;;;;;;;;143739;612;47010;-53
2021/08/17 04:42:18;;;;;;;10.27;7.00;;;;;;;;;;143743;566;45021;-51
2021/08/17 04:44:45;;;;;;;13.30;6.70;;;;;;;;;;143743;577;46020;-52
2021/08/17 04:47:12;;;;;;;18.52;7.80;;;;;;;;;;143739;569;47020;-53
2021/08/17 04:49:39;;;;;;;15.43;7.20;;;;;;;;;;143740;604;47011;-52
2021/08/17 04:52:06;;;;;;;21.70;8.85;;;;;;;;;;143744;635;45020;-52
2021/08/17 04:54:33;;;;;;;13.20;6.90;;;;;;;;;;143745;603;46020;-52
2021/08/17 04:57:01;;;;;;;13.57;6.82;;;;;;;;;;143741;695;47020;-53
2021/08/17 04:59:28;;;;;;;12.73;7.57;;;;;;;;;;143742;599;46010;-52
2021/08/17 05:01:54;;;;;;;12.68;7.87;;;;;;;;;;143742;576;45020;-52
2021/08/17 05:04:21;;;;;;;12.93;6.95;;;;;;;;;;143745;624;45021;-52
2021/08/17 05:06:50;;;;;;;14.02;7.00;;;;;;;;;;143740;596;47020;-51
2021/08/17 05:09:18;;;;;;;12.37;6.22;;;;;;;;;;143740;586;47011;-52
2021/08/17 05:11:44;;;;;;;13.00;7.20;;;;;;;;;;143742;622;45021;-52
2021/08/17 05:14:11;;;;;;;16.50;7.43;;;;;;;;;;143745;613;45021;-52
2021/08/17 05:16:39;;;;;;;12.95;7.32;;;;;;;;;;143740;604;47020;-52
2021/08/17 05:19:06;;;;;;;20.83;8.00;;;;;;;;;;143741;583;47010;-52
2021/08/17 05:21:33;;;;;;;28.20;9.57;;;;;;;;;;143742;579;45021;-52
2021/08/17 05:24:00;;;;;;;22.80;8.52;;;;;;;;;;143744;586;46010;-53
2021/08/17 05:26:27;;;;;;;15.77;7.87;;;;;;;;;;143739;585;47021;-52
2021/08/17 05:28:54;;;;;;;19.75;8.68;;;;;;;;;;143739;602;47010;-52
2021/08/17 05:31:21;;;;;;;23.42;7.80;;;;;;;;;;143741;577;45020;-52
2021/08/17 05:33:48;;;;;;;15.40;7.20;;;;;;;;;;143744;589;45021;-53
2021/08/17 05:36:15;;;;;;;18.00;7.80;;;;;;;;;;143739;658;47021;-52
2021/08/17 05:38:42;;;;;;;9.45;6.97;;;;;;;;;;143741;622;46010;-52
2021/08/17 05:41:09;;;;;;;14.90;7.50;;;;;;;;;;143742;587;45021;-51
2021/08/17 05:43:36;;;;;;;28.25;8.07;;;;;;;;;;143744;598;45021;-52
2021/08/17 05:46:04;;;;;;;22.00;7.62;;;;;;;;;;143739;667;48020;-52
2021/08/17 05:48:31;;;;;;;20.45;7.97;;;;;;;;;;143740;682;47010;-52
2021/08/17 05:50:58;;;;;;;20.65;7.35;;;;;;;;;;143740;585;46913;-52
2021/08/17 05:53:25;;;;;;;16.37;7.55;;;;;;;;;;143744;647;46010;-53
2021/08/17 05:55:52;;;;;;;18.33;7.30;;;;;;;;;;143740;570;47021;-52
2021/08/17 05:58:20;;;;;;;28.52;8.45;;;;;;;;;;143740;601;47011;-52
2021/08/17 06:00:47;;;;;;;14.87;7.50;;;;;;;;;;143742;601;45020;-53
2021/08/17 06:03:14;;;;;;;21.73;8.57;;;;;;;;;;143746;566;45020;-53
2021/08/17 06:05:40;;;;;;;25.00;8.32;;;;;;;;;;143740;656;47023;-53
2021/08/17 06:08:08;;;;;;;25.10;8.25;;;;;;;;;;143739;669;47010;-53
2021/08/17 06:10:35;;;;;;;19.27;7.90;;;;;;;;;;143743;576;45020;-52
2021/08/17 06:13:02;;;;;;;20.90;8.20;;;;;;;;;;143745;605;45021;-52
2021/08/17 06:15:28;;;;;;;20.15;8.20;;;;;;;;;;143741;583;47020;-53
2021/08/17 06:18:01;;;;;;;15.90;6.87;;;;;;;;;;143738;570;47010;-53
2021/08/17 06:20:29;;;;;;;18.10;7.50;;;;;;;;;;143741;567;45021;-53
2021/08/17 06:22:55;;;;;;;13.73;6.85;;;;;;;;;;143745;605;45020;-53
2021/08/17 06:25:22;;;;;;;17.98;6.95;;;;;;;;;;143739;576;47022;-53
2021/08/17 06:27:49;;;;;;;20.27;6.82;;;;;;;;;;143741;591;47010;-52
2021/08/17 06:30:17;;;;;;;16.45;7.18;;;;;;;;;;143742;589;45020;-51
2021/08/17 06:32:44;;;;;;;13.40;6.57;;;;;;;;;;143746;604;46020;-52
2021/08/17 06:35:11;;;;;;;14.90;7.15;;;;;;;;;;143741;564;47021;-51
2021/08/17 06:37:38;;;;;;;17.52;6.35;;;;;;;;;;143741;618;47010;-52
2021/08/17 06:40:06;;;;;;;10.77;6.80;;;;;;;;;;143743;609;45020;-51
2021/08/17 06:42:33;;;;;;;13.68;6.70;;;;;;;;;;143745;663;46021;-51
2021/08/17 06:45:00;;;;;;;14.25;6.82;;;;;;;;;;143740;576;47022;-51
2021/08/17 06:47:27;;;;;;;14.57;6.70;;;;;;;;;;143742;610;47010;-52
2021/08/17 06:49:54;;;;;;;12.15;6.25;;;;;;;;;;143745;579;45021;-52
2021/08/17 06:52:21;;;;;;;11.07;6.05;;;;;;;;;;143746;608;45020;-52
2021/08/17 06:54:48;;;;;;;13.88;6.07;;;;;;;;;;143743;613;47020;-53
2021/08/17 06:57:15;;;;;;;15.30;7.07;;;;;;;;;;143742;586;46011;-52
2021/08/17 06:59:42;;;;;;;11.73;5.95;;;;;;;;;;143745;683;45020;-52
2021/08/17 07:02:09;;;;;;;9.73;5.65;;;;;;;;;;143745;660;45022;-52
2021/08/17 07:04:36;;;;;;;9.35;6.40;;;;;;;;;;143740;673;47022;-53
2021/08/17 07:07:03;;;;;;;14.05;6.25;;;;;;;;;;143743;650;46010;-52
2021/08/17 07:09:30;;;;;;;11.12;5.65;;;;;;;;;;143742;719;46020;-52
2021/08/17 07:11:56;;;;;;;7.82;5.22;;;;;;;;;;143746;593;46021;-53
2021/08/17 07:14:24;;;;;;;8.10;5.30;;;;;;;;;;143740;567;47020;-52
2021/08/17 07:16:51;;;;;;;9.55;5.18;;;;;;;;;;143741;649;47010;-52
2021/08/17 07:19:18;;;;;;;6.18;5.07;;;;;;;;;;143746;564;45021;-52
2021/08/17 07:21:44;;;;;;;7.78;4.93;;;;;;;;;;143746;593;46020;-52
2021/08/17 07:24:12;;;;;;;10.45;6.20;;;;;;;;;;143741;586;47029;-52
2021/08/17 07:26:39;;;;;;;9.88;5.62;;;;;;;;;;143742;629;46010;-52
2021/08/17 07:29:06;;;;;;;10.77;5.60;;;;;;;;;;143743;588;45020;-52
2021/08/17 07:31:36;;;;;;;11.65;5.22;;;;;;;;;;143746;609;46020;-52
2021/08/17 07:34:05;;;;;;;12.30;5.65;;;;;;;;;;143743;661;47021;-52
2021/08/17 07:36:32;;;;;;;8.57;5.25;;;;;;;;;;143743;579;46010;-52
2021/08/17 07:38:59;;;;;;;8.82;5.43;;;;;;;;;;143745;592;45020;-52
2021/08/17 07:41:26;;;;;;;7.37;5.22;;;;;;;;;;143746;585;46021;-52
2021/08/17 07:43:53;;;;;;;8.00;5.22;;;;;;;;;;143741;569;47020;-51
2021/08/17 07:46:20;;;;;;;8.77;5.47;;;;;;;;;;143742;603;47010;-52
2021/08/17 07:48:47;;;;;;;11.63;5.12;;;;;;;;;;143742;636;46021;-51
2021/08/17 07:51:15;;;;;;;10.43;5.30;;;;;;;;;;143746;583;45020;-51
2021/08/17 07:53:42;;;;;;;11.93;5.57;;;;;;;;;;143743;602;47020;-51
2021/08/17 07:56:09;;;;;;;8.32;5.03;;;;;;;;;;143741;594;47010;-51
2021/08/17 07:58:36;;;;;;;8.27;5.65;;;;;;;;;;143744;577;46020;-52
2021/08/17 08:01:04;;;;;;;9.23;5.37;;;;;;;;;;143745;580;46020;-52
2021/08/17 08:03:31;;;;;;;9.15;5.60;;;;;;;;;;143744;576;47021;-52
2021/08/17 08:05:58;;;;;;;13.00;5.50;;;;;;;;;;143742;587;46010;-51
2021/08/17 08:08:25;;;;;;;8.63;5.45;;;;;;;;;;143744;616;45020;-52
2021/08/17 08:10:52;;;;;;;9.02;5.60;;;;;;;;;;143746;594;45021;-51
2021/08/17 08:13:19;;;;;;;10.05;5.43;;;;;;;;;;143741;634;47020;-52
2021/08/17 08:15:46;;;;;;;6.30;5.00;;;;;;;;;;143742;589;46919;-52
2021/08/17 08:18:13;;;;;;;8.00;4.60;;;;;;;;;;143744;660;45021;-52
2021/08/17 08:20:40;;;;;;;6.53;4.90;;;;;;;;;;143746;572;45021;-51
2021/08/17 08:23:08;;;;;;;6.87;4.60;;;;;;;;;;143744;564;47020;-51
2021/08/17 08:25:36;;;;;;;6.75;5.30;;;;;;;;;;143743;567;46027;-51
2021/08/17 08:28:03;;;;;;;9.48;5.60;;;;;;;;;;143746;614;45021;-51
2021/08/17 08:30:30;;;;;;;6.18;5.07;;;;;;;;;;143745;593;46010;-51
2021/08/17 08:32:57;;;;;;;6.30;5.00;;;;;;;;;;143743;589;47021;-52
2021/08/17 08:35:24;;;;;;;7.35;4.75;;;;;;;;;;143743;569;46027;-51
2021/08/17 08:37:51;;;;;;;7.37;5.37;;;;;;;;;;143744;597;45020;-51
2021/08/17 08:40:18;;;;;;;14.93;5.35;;;;;;;;;;143746;599;45021;-51
2021/08/17 08:42:46;;;;;;;7.95;5.45;;;;;;;;;;143741;643;47021;-53
2021/08/17 08:45:13;;;;;;;6.60;4.90;;;;;;;;;;143742;603;47010;-51
2021/08/17 08:47:41;;;;;;;12.07;5.95;;;;;;;;;;143746;570;45021;-52
2021/08/17 08:50:09;;;;;;;7.80;5.72;;;;;;;;;;143747;742;45021;-51
2021/08/17 08:52:37;;;;;;;12.02;4.60;;;;;;;;;;143743;587;47020;-52
2021/08/17 08:55:09;;;;;;;6.87;4.97;;;;;;;;;;143743;569;47011;-51
2021/08/17 08:57:37;;;;;;;8.50;4.62;;;;;;;;;;143745;589;45021;-52
2021/08/17 09:00:09;;;;;;;5.93;4.85;;;;;;;;;;143745;615;46020;-51
2021/08/17 09:02:36;;;;;;;8.68;4.95;;;;;;;;;;143743;653;47020;-52
2021/08/17 09:05:04;;;;;;;7.28;5.20;;;;;;;;;;143741;577;47010;-51
2021/08/17 09:07:39;;;;;;;6.90;4.80;;;;;;;;;;143742;590;45020;-52
2021/08/17 09:10:09;;;;;;;7.53;5.03;;;;;;;;;;143746;635;46020;-52
2021/08/17 09:12:41;;;;;;;5.93;4.50;;;;;;;;;;143740;598;48020;-52
2021/08/17 09:15:17;;;;;;;8.80;5.00;;;;;;;;;;143739;586;47010;-50
2021/08/17 09:17:56;;;;;;;8.95;5.25;;;;;;;;;;143745;567;45021;-50
2021/08/17 09:20:33;;;;;;;6.97;4.50;;;;;;;;;;143747;615;46020;-50
2021/08/17 09:23:37;;;;;;;7.10;5.10;;;;;;;;;;143743;580;47020;-50
2021/08/17 09:26:29;;;;;;;9.07;4.80;;;;;;;;;;143741;577;47010;-50
2021/08/17 09:28:59;;;;;;;8.95;4.70;;;;;;;;;;143744;673;45020;-50
2021/08/17 09:31:34;;;;;;;8.18;4.87;;;;;;;;;;143747;588;46020;-50
2021/08/17 09:34:02;;;;;;;10.85;5.28;;;;;;;;;;143741;569;47050;-50
2021/08/17 09:36:43;;;;;;;7.05;5.12;;;;;;;;;;143743;607;46010;-51
2021/08/17 09:39:11;;;;;;;8.27;5.07;;;;;;;;;;143744;644;45913;-50
2021/08/17 09:41:38;;;;;;;9.75;4.82;;;;;;;;;;143745;599;46027;-51
2021/08/17 09:44:09;;;;;;;9.90;4.78;;;;;;;;;;143738;659;47020;-51
2021/08/17 09:46:40;;;;;;;7.03;5.10;;;;;;;;;;143742;607;46011;-51
2021/08/17 09:49:27;;;;;;;15.77;5.65;;;;;;;;;;143740;589;48012;-51
2021/08/17 09:52:16;;;;;;;8.98;5.15;;;;;;;;;;143746;615;45020;-51
2021/08/17 09:54:45;;;;;;;6.80;4.60;;;;;;;;;;143742;592;47019;-52
2021/08/17 09:57:14;;;;;;;18.23;5.37;;;;;;;;;;143740;629;47010;-53
2021/08/17 09:59:46;;;;;;;8.60;4.75;;;;;;;;;;143743;609;45913;-53
2021/08/17 10:02:13;;;;;;;7.25;4.68;;;;;;;;;;143747;620;46020;-53
2021/08/17 10:04:44;;;;;;;7.35;4.40;;;;;;;;;;143741;587;47023;-53
2021/08/17 10:07:11;;;;;;;10.35;4.82;;;;;;;;;;143743;576;46010;-54
2021/08/17 10:09:38;;;;;;;8.05;4.40;;;;;;;;;;143745;576;45021;-53
2021/08/17 10:12:06;;;;;;;6.87;4.60;;;;;;;;;;143746;564;46020;-52
2021/08/17 10:14:35;;;;;;;6.53;5.12;;;;;;;;;;143741;569;47022;-52
2021/08/17 10:17:02;;;;;;;5.55;4.37;;;;;;;;;;143743;588;46011;-52
2021/08/17 10:19:34;;;;;;;8.25;4.57;;;;;;;;;;143742;611;46021;-51
2021/08/17 10:22:05;;;;;;;9.52;4.90;;;;;;;;;;143746;576;46020;-52
2021/08/17 10:24:40;;;;;;;6.40;4.62;;;;;;;;;;143741;595;47021;-51
2021/08/17 10:27:21;;;;;;;5.62;4.40;;;;;;;;;;143743;587;46010;-52
2021/08/17 10:30:10;;;;;;;5.05;4.30;;;;;;;;;;143744;592;45912;-52
2021/08/17 10:32:46;;;;;;;8.77;5.15;;;;;;;;;;143744;629;47020;-52
2021/08/17 10:35:50;;;;;;;9.98;4.65;;;;;;;;;;143740;603;47023;-52
2021/08/17 10:38:38;;;;;;;5.97;4.60;;;;;;;;;;143742;593;46010;-52
2021/08/17 10:41:07;;;;;;;5.90;4.35;;;;;;;;;;143744;592;45023;-52
2021/08/17 10:44:05;;;;;;;5.93;4.40;;;;;;;;;;143746;573;45020;-52
2021/08/17 10:46:47;;;;;;;7.60;4.87;;;;;;;;;;143740;596;47021;-52
2021/08/17 10:49:42;;;;;;;7.57;4.50;;;;;;;;;;143748;662;46010;-52
2021/08/17 10:52:12;;;;;;;6.20;4.45;;;;;;;;;;143744;569;45020;-53
2021/08/17 10:54:40;;;;;;;7.90;4.60;;;;;;;;;;143746;595;45021;-53
2021/08/17 10:57:22;;;;;;;5.45;4.55;;;;;;;;;;143742;564;47023;-52
2021/08/17 10:59:51;;;;;;;6.50;4.87;;;;;;;;;;143741;584;46020;-53
2021/08/17 11:02:24;;;;;;;7.78;4.25;;;;;;;;;;143744;585;45913;-52
2021/08/17 11:04:52;;;;;;;7.45;4.62;;;;;;;;;;143747;567;46020;-52
2021/08/17 11:07:32;;;;;;;8.88;4.32;;;;;;;;;;143742;592;47020;-52
2021/08/17 11:10:05;;;;;;;6.85;4.75;;;;;;;;;;143742;577;47010;-53
2021/08/17 11:12:32;;;;;;;;;;;;;;;;;;143746;971;45020;-53
2021/08/17 11:14:59;;;;;;;6.30;4.75;;;;;;;;;;143750;565;45020;-53
2021/08/17 11:17:26;;;;;;;6.22;4.60;;;;;;;;;;143739;586;47021;-53
2021/08/17 11:19:54;;;;;;;6.45;4.57;;;;;;;;;;143740;686;46029;-52
2021/08/17 11:22:27;;;;;;;11.02;5.35;;;;;;;;;;143743;563;45020;-53
2021/08/17 11:24:59;;;;;;;5.10;4.15;;;;;;;;;;143745;624;46020;-53
2021/08/17 11:27:41;;;;;;;7.80;4.47;;;;;;;;;;143739;570;47020;-54
2021/08/17 11:30:16;;;;;;;8.77;4.43;;;;;;;;;;143738;575;47010;-54
2021/08/17 11:32:48;;;;;;;7.45;4.70;;;;;;;;;;143743;566;45021;-53
2021/08/17 11:35:17;;;;;;;11.00;4.47;;;;;;;;;;143744;569;45020;-54
2021/08/17 11:37:47;;;;;;;9.45;5.20;;;;;;;;;;143739;632;47020;-53
2021/08/17 11:40:16;;;;;;;6.72;4.30;;;;;;;;;;143738;581;47010;-53
2021/08/17 11:42:46;;;;;;;6.00;4.43;;;;;;;;;;143741;640;45020;-52
2021/08/17 11:45:16;;;;;;;4.47;3.97;;;;;;;;;;143744;668;46020;-53
2021/08/17 11:47:45;;;;;;;6.30;4.45;;;;;;;;;;143740;587;47023;-53
2021/08/17 11:50:14;;;;;;;5.40;4.28;;;;;;;;;;143741;612;46010;-53
2021/08/17 11:52:46;;;;;;;7.82;4.57;;;;;;;;;;143741;582;45020;-52
2021/08/17 11:55:16;;;;;;;6.47;4.68;;;;;;;;;;143743;571;46021;-53
2021/08/17 11:57:48;;;;;;;5.18;4.28;;;;;;;;;;143740;570;47020;-53
2021/08/17 12:00:30;;;;;;;5.35;4.40;;;;;;;;;;143741;636;46010;-54
2021/08/17 12:03:05;;;;;;;6.62;4.45;;;;;;;;;;143742;564;45021;-53
2021/08/17 12:05:35;;;;;;;6.45;4.20;;;;;;;;;;143745;583;46020;-53
2021/08/17 12:08:04;;;;;;;5.43;4.12;;;;;;;;;;143742;579;47020;-53
2021/08/17 12:10:33;;;;;;;4.93;3.85;;;;;;;;;;143740;581;46011;-54
2021/08/17 12:13:11;;;;;;;4.75;3.87;;;;;;;;;;143741;655;45020;-53
2021/08/17 12:16:07;;;;;;;4.93;4.03;;;;;;;;;;143743;563;45020;-53
2021/08/17 12:18:35;;;;;;;8.07;4.50;;;;;;;;;;143740;602;47020;-53
2021/08/17 12:21:08;;;;;;;6.40;4.25;;;;;;;;;;143738;613;47010;-52
2021/08/17 12:23:43;;;;;;;6.40;3.80;;;;;;;;;;143743;577;45021;-53
2021/08/17 12:26:33;;;;;;;5.93;3.67;;;;;;;;;;143743;613;46021;-54
2021/08/17 12:29:10;;;;;;;6.45;4.40;;;;;;;;;;143738;574;47024;-54
2021/08/17 12:31:38;;;;;;;12.05;4.20;;;;;;;;;;143740;580;46010;-54
2021/08/17 12:34:09;;;;;;;7.55;4.62;;;;;;;;;;143743;589;45021;-54
2021/08/17 12:36:53;;;;;;;5.95;4.03;;;;;;;;;;143744;575;46020;-53
2021/08/17 12:39:29;;;;;;;4.60;3.58;;;;;;;;;;143739;587;47022;-54
2021/08/17 12:41:58;;;;;;;8.05;5.20;;;;;;;;;;143741;569;46010;-53
2021/08/17 12:44:45;;;;;;;6.37;4.30;;;;;;;;;;143742;624;45020;-54
2021/08/17 12:47:19;;;;;;;4.93;3.80;;;;;;;;;;143744;589;46012;-53
2021/08/17 12:49:52;;;;;;;6.85;4.60;;;;;;;;;;143737;578;47022;-53
2021/08/17 12:52:51;;;;;;;5.40;3.78;;;;;;;;;;143740;570;47020;-53
2021/08/17 12:55:25;;;;;;;6.68;4.10;;;;;;;;;;143742;579;45023;-54
2021/08/17 12:57:55;;;;;;;3.87;3.50;;;;;;;;;;143744;652;45020;-54
2021/08/17 13:00:26;;;;;;;6.57;4.12;;;;;;;;;;143741;596;47041;-54
2021/08/17 13:02:54;;;;;;;6.35;4.22;;;;;;;;;;143740;574;47010;-54
2021/08/17 13:05:22;;;;;;;5.60;4.00;;;;;;;;;;143742;557;45020;-54
2021/08/17 13:07:49;;;;;;;5.45;3.85;;;;;;;;;;143744;599;46020;-54
2021/08/17 13:10:20;;;;;;;8.85;3.97;;;;;;;;;;143739;583;47023;-54
2021/08/17 13:12:48;;;;;;;5.30;4.22;;;;;;;;;;143739;607;47010;-53
2021/08/17 13:15:16;;;;;;;5.62;3.97;;;;;;;;;;143743;608;45020;-53
2021/08/17 13:17:44;;;;;;;6.15;4.12;;;;;;;;;;143745;625;45021;-54
2021/08/17 13:20:13;;;;;;;5.05;4.18;;;;;;;;;;143738;665;47020;-53
2021/08/17 13:22:42;;;;;;;7.12;4.07;;;;;;;;;;143740;673;46010;-53
2021/08/17 13:25:10;;;;;;;7.18;4.87;;;;;;;;;;143742;593;45021;-53
2021/08/17 13:27:37;;;;;;;9.00;4.97;;;;;;;;;;143744;658;45020;-53
2021/08/17 13:30:04;;;;;;;9.23;5.03;;;;;;;;;;143739;588;47020;-52
2021/08/17 13:32:32;;;;;;;10.02;4.65;;;;;;;;;;143739;566;47010;-53
2021/08/17 13:34:59;;;;;;;8.20;4.57;;;;;;;;;;143740;609;45913;-52
2021/08/17 13:37:26;;;;;;;7.47;4.60;;;;;;;;;;143744;591;46020;-53
2021/08/17 13:39:53;;;;;;;7.65;5.40;;;;;;;;;;143740;685;47020;-52
2021/08/17 13:42:23;;;;;;;9.50;5.10;;;;;;;;;;143739;629;47010;-52
2021/08/17 13:44:51;;;;;;;9.15;4.68;;;;;;;;;;143742;615;45020;-52
2021/08/17 13:47:19;;;;;;;10.20;5.15;;;;;;;;;;143743;643;46020;-53
2021/08/17 13:49:46;;;;;;;7.05;5.05;;;;;;;;;;143739;576;47010;-53
2021/08/17 13:52:14;;;;;;;9.05;5.70;;;;;;;;;;143739;589;47010;-53
2021/08/17 13:54:41;;;;;;;8.05;5.10;;;;;;;;;;143741;570;46010;-53
2021/08/17 13:57:08;;;;;;;8.70;5.03;;;;;;;;;;143745;599;45020;-53
2021/08/17 13:59:35;;;;;;;5.22;4.07;;;;;;;;;;143740;622;47020;-53
2021/08/17 14:02:02;;;;;;;8.43;5.18;;;;;;;;;;143741;581;46026;-53
2021/08/17 14:04:29;;;;;;;7.53;4.78;;;;;;;;;;143742;577;45020;-53
2021/08/17 14:06:56;;;;;;;9.00;5.40;;;;;;;;;;143744;607;45020;-53
2021/08/17 14:09:23;;;;;;;6.62;4.65;;;;;;;;;;143736;605;47021;-53
2021/08/17 14:11:50;;;;;;;7.72;4.93;;;;;;;;;;143741;630;46010;-53
2021/08/17 14:14:18;;;;;;;11.38;5.43;;;;;;;;;;143741;564;45020;-53
2021/08/17 14:16:46;;;;;;;6.22;4.50;;;;;;;;;;143745;572;45021;-53
2021/08/17 14:19:13;;;;;;;8.88;5.05;;;;;;;;;;143741;635;46047;-53
2021/08/17 14:21:40;;;;;;;8.95;4.93;;;;;;;;;;143740;664;46010;-53
2021/08/17 14:24:08;;;;;;;6.93;5.00;;;;;;;;;;143741;578;46020;-53
2021/08/17 14:26:37;;;;;;;9.98;5.05;;;;;;;;;;143745;617;46021;-53
2021/08/17 14:29:05;;;;;;;11.93;5.45;;;;;;;;;;143739;605;47020;-53
2021/08/17 14:31:33;;;;;;;7.70;4.97;;;;;;;;;;143741;585;46010;-52
2021/08/17 14:34:00;;;;;;;8.40;5.10;;;;;;;;;;143740;607;45912;-53
2021/08/17 14:36:27;;;;;;;8.63;5.18;;;;;;;;;;143743;679;45020;-52
2021/08/17 14:38:54;;;;;;;9.90;5.35;;;;;;;;;;143739;671;47021;-53
2021/08/17 14:41:22;;;;;;;10.35;5.15;;;;;;;;;;143740;584;47010;-52
2021/08/17 14:43:49;;;;;;;8.40;5.35;;;;;;;;;;143742;583;45913;-53
2021/08/17 14:46:16;;;;;;;6.10;4.85;;;;;;;;;;143745;642;46030;-52
2021/08/17 14:48:44;;;;;;;8.75;5.12;;;;;;;;;;143738;587;47022;-52
2021/08/17 14:51:11;;;;;;;21.85;6.00;;;;;;;;;;143740;670;46010;-53